Time;durP1;ratioP1;P1;durP2;ratioP2;P2;SDS_P1;SDS_P2;PMS_P1;PMS_P2;Temp;Humidity;BMP_temperature;BMP_pressure;BME280_temperature;BME280_humidity;BME280_pressure;Samples;Min_cycle;Max_cycle;Signal;HPM_P1;HPM_P2
2022/07/10 00:00:21;;;;;;;;;;;;;;;15.32;87.65;97553.09;30001;983;1879;-58
2022/07/10 00:00:53;;;;;;;;;;;;;;;15.34;87.46;97548.13;30001;983;1879;-58
2022/07/10 00:01:24;;;;;;;;;;;;;;;15.33;88.22;97549.22;30001;983;1879;-58
2022/07/10 00:01:55;;;;;;;;;;;;;;;15.32;88.45;97558.56;30001;983;1879;-58
2022/07/10 00:02:26;;;;;;;;;;;;;;;15.29;88.34;97556.44;30001;983;1879;-58
2022/07/10 00:02:57;;;;;;;;;;;;;;;15.29;87.95;97561.09;30001;983;1879;-58
2022/07/10 00:03:28;;;;;;;;;;;;;;;15.28;88.00;97560.28;30001;983;1879;-58
2022/07/10 00:03:59;;;;;;;;;;;;;;;15.29;87.93;97561.09;30001;975;1897;-58
2022/07/10 00:04:30;;;;;;;;;;;;;;;15.29;88.16;97567.38;30001;982;1866;-59
2022/07/10 00:05:01;;;;;;;;;;;;;;;15.27;88.73;97555.94;30001;982;1871;-58
2022/07/10 00:05:34;;;;;;;;;;;;;;;15.26;88.49;97554.31;30001;982;1880;-58
2022/07/10 00:06:06;;;;;;;;;;;;;;;15.27;88.30;97557.84;30001;982;1880;-58
2022/07/10 00:06:40;;;;;;;;;;;;;;;15.26;88.06;97551.56;30001;982;1880;-58
2022/07/10 00:07:11;;;;;;;;;;;;;;;15.27;87.79;97558.66;30001;983;1879;-58
2022/07/10 00:07:42;;;;;;;;;;;;;;;15.29;87.82;97556.44;30001;983;1879;-58
2022/07/10 00:08:13;;;;;;;;;;;;;;;15.29;87.86;97555.63;30001;983;1879;-58
2022/07/10 00:08:44;;;;;;;;;;;;;;;15.27;88.32;97555.94;30001;983;1879;-58
2022/07/10 00:09:15;;;;;;;;;;;;;;;15.27;88.14;97549.66;30001;983;1879;-58
2022/07/10 00:09:46;;;;;;;;;;;;;;;15.26;88.51;97550.75;30001;983;1866;-58
2022/07/10 00:10:18;;;;;;;;;;;;;;;15.23;88.59;97552.22;30001;983;1871;-57
2022/07/10 00:10:48;;;;;;;;;;;;;;;15.22;88.77;97550.59;30001;983;1862;-58
2022/07/10 00:11:19;;;;;;;;;;;;;;;15.23;87.89;97552.22;30001;983;1866;-58
2022/07/10 00:11:50;;;;;;;;;;;;;;;15.24;87.92;97548.38;30001;982;1875;-58
2022/07/10 00:12:21;;;;;;;;;;;;;;;15.25;87.90;97549.94;30001;982;1875;-58
2022/07/10 00:12:52;;;;;;;;;;;;;;;15.25;87.91;97549.94;30001;982;1875;-57
2022/07/10 00:13:23;;;;;;;;;;;;;;;15.27;87.49;97549.66;30001;982;1862;-59
2022/07/10 00:13:54;;;;;;;;;;;;;;;15.26;87.83;97548.84;30001;982;1867;-58
2022/07/10 00:14:25;;;;;;;;;;;;;;;15.27;87.79;97549.66;30001;983;1875;-57
2022/07/10 00:14:56;;;;;;;;;;;;;;;15.27;87.54;97547.72;30001;983;1875;-59
2022/07/10 00:15:27;;;;;;;;;;;;;;;15.27;87.54;97545.00;30001;983;1874;-59
2022/07/10 00:15:57;;;;;;;;;;;;;;;15.26;87.91;97546.09;30001;983;1875;-59
2022/07/10 00:16:28;;;;;;;;;;;;;;;15.26;87.36;97546.09;30001;983;1875;-58
2022/07/10 00:16:59;;;;;;;;;;;;;;;15.27;87.39;97546.91;30001;983;1875;-58
2022/07/10 00:17:31;;;;;;;;;;;;;;;15.28;87.35;97548.53;30001;983;1861;-58
2022/07/10 00:18:02;;;;;;;;;;;;;;;15.29;87.60;97542.75;30001;983;1761;-58
2022/07/10 00:18:34;;;;;;;;;;;;;;;15.29;87.44;97545.50;30001;983;1875;-58
2022/07/10 00:19:05;;;;;;;;;;;;;;;15.28;87.61;97549.34;30001;983;1875;-58
2022/07/10 00:19:39;;;;;;;;;;;;;;;15.29;87.16;97540.03;30001;982;1875;-59
2022/07/10 00:20:10;;;;;;;;;;;;;;;15.29;87.80;97544.69;30001;982;1875;-58
2022/07/10 00:20:41;;;;;;;;;;;;;;;15.29;87.60;97544.69;30001;982;1875;-58
2022/07/10 00:21:12;;;;;;;;;;;;;;;15.29;87.21;97545.50;30001;982;1862;-58
2022/07/10 00:21:43;;;;;;;;;;;;;;;15.30;87.15;97540.84;30001;982;1867;-58
2022/07/10 00:22:14;;;;;;;;;;;;;;;15.30;87.68;97538.91;30001;983;1875;-58
2022/07/10 00:22:45;;;;;;;;;;;;;;;15.29;87.22;97540.03;30001;983;1875;-59
2022/07/10 00:23:17;;;;;;;;;;;;;;;15.31;87.30;97540.53;30001;983;1875;-57
2022/07/10 00:23:48;;;;;;;;;;;;;;;15.32;86.83;97544.88;30001;983;1875;-57
2022/07/10 00:24:19;;;;;;;;;;;;;;;15.34;86.94;97539.09;30001;983;1875;-57
2022/07/10 00:24:53;;;;;;;;;;;;;;;15.35;86.54;97544.28;30001;983;1875;-58
2022/07/10 00:25:25;;;;;;;;;;;;;;;15.35;87.26;97538.81;30001;983;1862;-59
2022/07/10 00:25:56;;;;;;;;;;;;;;;15.36;87.27;97548.63;30001;983;1866;-58
2022/07/10 00:26:27;;;;;;;;;;;;;;;15.35;87.20;97538.00;30001;983;1875;-58
2022/07/10 00:26:58;;;;;;;;;;;;;;;15.36;87.21;97545.88;30001;982;1875;-57
2022/07/10 00:27:31;;;;;;;;;;;;;;;15.36;87.51;97545.88;30001;982;1875;-59
2022/07/10 00:28:04;;;;;;;;;;;;;;;15.35;87.11;97538.81;30001;982;1875;-58
2022/07/10 00:28:36;;;;;;;;;;;;;;;15.35;87.22;97541.53;30001;982;1875;-58
2022/07/10 00:29:08;;;;;;;;;;;;;;;15.35;87.03;97538.81;30001;982;1875;-57
2022/07/10 00:29:41;;;;;;;;;;;;;;;15.35;86.93;97536.06;30001;983;1875;-58
2022/07/10 00:30:13;;;;;;;;;;;;;;;15.36;86.51;97537.69;30001;983;1875;-58
2022/07/10 00:30:44;;;;;;;;;;;;;;;15.36;86.91;97540.41;30001;983;1861;-58
2022/07/10 00:31:15;;;;;;;;;;;;;;;15.34;86.51;97542.66;30001;983;1866;-58
2022/07/10 00:31:46;;;;;;;;;;;;;;;15.34;86.96;97539.91;30001;983;1875;-59
2022/07/10 00:32:17;;;;;;;;;;;;;;;15.35;87.16;97544.28;30001;983;1875;-57
2022/07/10 00:32:48;;;;;;;;;;;;;;;15.33;87.31;97541.03;30001;983;1875;-58
2022/07/10 00:33:19;;;;;;;;;;;;;;;15.32;87.21;97535.88;30001;983;1875;-58
2022/07/10 00:33:51;;;;;;;;;;;;;;;15.32;87.05;97539.41;30001;983;1875;-58
2022/07/10 00:34:22;;;;;;;;;;;;;;;15.32;86.90;97539.41;30001;983;1862;-59
2022/07/10 00:34:53;;;;;;;;;;;;;;;15.32;87.29;97533.94;30001;982;1866;-57
2022/07/10 00:35:23;;;;;;;;;;;;;;;15.33;87.29;97540.22;30001;982;1875;-58
2022/07/10 00:35:54;;;;;;;;;;;;;;;15.31;87.39;97537.78;30001;982;1862;-58
2022/07/10 00:36:25;;;;;;;;;;;;;;;15.31;86.97;97540.53;30001;982;1867;-57
2022/07/10 00:36:56;;;;;;;;;;;;;;;15.31;87.56;97537.78;30001;982;1875;-58
2022/07/10 00:37:28;;;;;;;;;;;;;;;15.31;87.87;97543.25;30001;983;1875;-57
2022/07/10 00:37:58;;;;;;;;;;;;;;;15.30;87.31;97541.66;30001;983;1875;-58
2022/07/10 00:38:29;;;;;;;;;;;;;;;15.30;87.19;97541.66;30001;983;1875;-58
2022/07/10 00:39:00;;;;;;;;;;;;;;;15.28;87.20;97543.88;30001;983;1875;-57
2022/07/10 00:39:31;;;;;;;;;;;;;;;15.28;87.58;97540.34;30001;983;1875;-58
2022/07/10 00:40:04;;;;;;;;;;;;;;;15.28;87.55;97538.41;30001;983;1875;-58
2022/07/10 00:40:35;;;;;;;;;;;;;;;15.28;87.25;97538.41;30001;983;1875;-58
2022/07/10 00:41:06;;;;;;;;;;;;;;;15.29;87.71;97544.69;30001;983;1862;-58
2022/07/10 00:41:37;;;;;;;;;;;;;;;15.29;86.91;97536.47;30001;982;1866;-58
2022/07/10 00:42:13;;;;;;;;;;;;;;;15.30;86.89;97541.66;30001;982;1875;-58
2022/07/10 00:42:44;;;;;;;;;;;;;;;15.30;86.64;97541.66;30001;982;1875;-58
2022/07/10 00:43:15;;;;;;;;;;;;;;;15.32;87.03;97538.59;30001;982;1875;-57
2022/07/10 00:43:59;;;;;;;;;;;;;;;15.30;86.65;97538.91;30001;982;1876;-58
2022/07/10 00:44:30;;;;;;;;;;;;;;;15.29;86.55;97533.75;30001;982;1875;-57
2022/07/10 00:45:01;;;;;;;;;;;;;;;15.27;85.99;97542.25;30001;983;1793;-58
2022/07/10 00:45:32;;;;;;;;;;;;;;;15.26;86.24;97532.44;30001;983;1862;-59
2022/07/10 00:46:03;;;;;;;;;;;;;;;15.27;86.04;97536.78;30001;983;1866;-57
2022/07/10 00:46:35;;;;;;;;;;;;;;;15.28;86.68;97532.94;30001;983;1862;-58
2022/07/10 00:47:09;;;;;;;;;;;;;;;15.27;86.39;97534.06;30001;983;1866;-58
2022/07/10 00:47:40;;;;;;;;;;;;;;;15.25;86.44;97532.75;30001;983;1875;-57
2022/07/10 00:48:11;;;;;;;;;;;;;;;15.25;86.24;97533.56;30001;983;1875;-58
2022/07/10 00:48:42;;;;;;;;;;;;;;;15.25;86.38;97539.03;30001;983;1875;-58
2022/07/10 00:49:12;;;;;;;;;;;;;;;15.25;86.74;97533.56;30001;982;1875;-58
2022/07/10 00:49:43;;;;;;;;;;;;;;;15.26;86.59;97534.34;30001;982;1875;-59
2022/07/10 00:50:14;;;;;;;;;;;;;;;15.26;86.54;97535.16;30001;982;1875;-58
2022/07/10 00:50:47;;;;;;;;;;;;;;;15.25;86.97;97539.03;30001;982;1862;-58
2022/07/10 00:51:21;;;;;;;;;;;;;;;15.25;86.66;97536.28;30001;982;1867;-57
2022/07/10 00:51:53;;;;;;;;;;;;;;;15.25;86.29;97539.03;30001;982;1875;-60
2022/07/10 00:52:24;;;;;;;;;;;;;;;15.25;86.58;97539.03;30001;983;1875;-58
2022/07/10 00:52:55;;;;;;;;;;;;;;;15.25;86.38;97539.03;30001;983;1861;-58
2022/07/10 00:53:27;;;;;;;;;;;;;;;15.25;87.43;97536.28;30001;983;1866;-59
2022/07/10 00:53:58;;;;;;;;;;;;;;;15.25;87.21;97539.03;30001;983;1861;-58
2022/07/10 00:54:30;;;;;;;;;;;;;;;15.26;86.67;97537.91;30001;983;1866;-59
2022/07/10 00:55:02;;;;;;;;;;;;;;;15.27;86.99;97538.72;30001;983;1875;-58
2022/07/10 00:55:34;;;;;;;;;;;;;;;15.26;86.76;97537.91;30001;983;1875;-60
2022/07/10 00:56:06;;;;;;;;;;;;;;;15.25;86.54;97533.56;30001;983;1875;-59
2022/07/10 00:56:37;;;;;;;;;;;;;;;15.25;86.54;97532.75;30001;982;1875;-60
2022/07/10 00:57:09;;;;;;;;;;;;;;;15.25;86.43;97536.28;30001;982;1862;-59
2022/07/10 00:57:40;;;;;;;;;;;;;;;15.24;86.34;97534.69;30001;982;1867;-58
2022/07/10 00:58:12;;;;;;;;;;;;;;;15.26;86.08;97539.81;30001;982;1875;-58
2022/07/10 00:58:45;;;;;;;;;;;;;;;15.26;85.43;97540.63;30001;982;1875;-59
2022/07/10 00:59:16;;;;;;;;;;;;;;;15.26;85.39;97540.63;30001;982;1875;-58
2022/07/10 00:59:48;;;;;;;;;;;;;;;15.25;85.56;97533.56;30001;983;1861;-58
2022/07/10 01:00:19;;;;;;;;;;;;;;;15.24;85.74;97534.69;30001;983;1866;-59
2022/07/10 01:00:50;;;;;;;;;;;;;;;15.25;85.55;97533.56;30001;983;1875;-60
2022/07/10 01:01:22;;;;;;;;;;;;;;;15.24;85.40;97526.50;30001;983;1862;-59
2022/07/10 01:01:53;;;;;;;;;;;;;;;15.24;85.51;97531.97;30001;983;1866;-58
2022/07/10 01:02:24;;;;;;;;;;;;;;;15.23;85.39;97522.13;30001;983;1875;-57
2022/07/10 01:02:56;;;;;;;;;;;;;;;15.24;85.11;97529.22;30001;983;1875;-60
2022/07/10 01:03:28;;;;;;;;;;;;;;;15.24;85.04;97526.50;30001;983;1862;-58
2022/07/10 01:03:59;;;;;;;;;;;;;;;15.23;85.63;97524.87;30001;982;1866;-58
2022/07/10 01:04:30;;;;;;;;;;;;;;;15.22;85.58;97523.25;30001;982;1875;-58
2022/07/10 01:05:02;;;;;;;;;;;;;;;15.22;85.23;97526.00;30001;982;1875;-60
2022/07/10 01:05:36;;;;;;;;;;;;;;;15.20;85.47;97520.03;30001;982;1875;-58
2022/07/10 01:06:07;;;;;;;;;;;;;;;15.17;85.58;97526.09;30001;982;1875;-59
2022/07/10 01:06:38;;;;;;;;;;;;;;;15.16;85.75;97524.47;30001;982;1876;-58
2022/07/10 01:07:10;;;;;;;;;;;;;;;15.15;85.79;97525.59;30001;982;1875;-58
2022/07/10 01:07:41;;;;;;;;;;;;;;;15.11;85.55;97519.13;30001;983;1875;-57
2022/07/10 01:08:12;;;;;;;;;;;;;;;15.13;85.49;97521.56;30001;983;1862;-58
2022/07/10 01:08:43;;;;;;;;;;;;;;;15.11;85.46;97524.59;30001;983;1866;-58
2022/07/10 01:09:16;;;;;;;;;;;;;;;15.10;85.44;97517.50;30001;983;1875;-57
2022/07/10 01:09:46;;;;;;;;;;;;;;;15.09;85.31;97524.09;30001;983;1875;-58
2022/07/10 01:10:18;;;;;;;;;;;;;;;15.09;85.39;97526.81;30001;983;1875;-58
2022/07/10 01:10:49;;;;;;;;;;;;;;;15.08;85.36;97517.00;30001;983;1875;-58
2022/07/10 01:11:21;;;;;;;;;;;;;;;15.07;85.68;97524.37;30001;983;1875;-58
2022/07/10 01:11:55;;;;;;;;;;;;;;;15.04;85.62;97516.00;30001;982;1862;-59
2022/07/10 01:12:27;;;;;;;;;;;;;;;15.03;85.58;97519.84;30001;982;1867;-58
2022/07/10 01:12:57;;;;;;;;;;;;;;;15.02;86.20;97523.69;30001;982;1875;-59
2022/07/10 01:13:30;;;;;;;;;;;;;;;14.99;86.26;97521.56;30001;982;1875;-58
2022/07/10 01:14:02;;;;;;;;;;;;;;;14.96;86.73;97520.25;30001;983;1875;-58
2022/07/10 01:14:35;;;;;;;;;;;;;;;14.95;86.16;97517.81;30001;983;1875;-58
2022/07/10 01:15:07;;;;;;;;;;;;;;;14.95;86.58;97517.81;30001;983;1875;-60
2022/07/10 01:15:39;;;;;;;;;;;;;;;14.95;86.63;97515.09;30001;983;1875;-60
2022/07/10 01:16:11;;;;;;;;;;;;;;;14.93;86.50;97518.13;30001;983;1875;-59
2022/07/10 01:16:42;;;;;;;;;;;;;;;14.89;86.24;97519.06;30001;983;1862;-58
2022/07/10 01:17:13;;;;;;;;;;;;;;;14.86;86.29;97519.66;30001;983;1866;-58
2022/07/10 01:17:48;;;;;;;;;;;;;;;14.87;86.20;97524.03;30001;983;1875;-60
2022/07/10 01:18:19;;;;;;;;;;;;;;;14.86;86.13;97519.66;30001;983;1875;-58
2022/07/10 01:18:51;;;;;;;;;;;;;;;14.87;85.73;97521.28;30001;983;1875;-58
2022/07/10 01:19:22;;;;;;;;;;;;;;;14.87;85.66;97515.81;30001;982;1875;-58
2022/07/10 01:19:53;;;;;;;;;;;;;;;14.88;85.97;97517.44;30001;982;1862;-58
2022/07/10 01:20:29;;;;;;;;;;;;;;;14.88;85.70;97520.19;30001;982;1867;-58
2022/07/10 01:21:00;;;;;;;;;;;;;;;14.88;85.97;97522.91;30001;982;1875;-58
2022/07/10 01:21:32;;;;;;;;;;;;;;;14.88;85.96;97517.44;30001;983;1875;-58
2022/07/10 01:22:04;;;;;;;;;;;;;;;14.86;85.99;97511.47;30001;983;1875;-59
2022/07/10 01:22:38;;;;;;;;;;;;;;;14.87;85.64;97515.81;30001;983;1861;-59
2022/07/10 01:23:09;;;;;;;;;;;;;;;14.87;85.89;97513.09;30001;983;1866;-58
2022/07/10 01:23:40;;;;;;;;;;;;;;;14.85;85.74;97518.06;30001;983;1862;-58
2022/07/10 01:24:11;;;;;;;;;;;;;;;14.84;85.41;97513.69;30001;983;1866;-59
2022/07/10 01:24:42;;;;;;;;;;;;;;;14.86;85.87;97522.41;30001;983;1875;-59
2022/07/10 01:25:12;;;;;;;;;;;;;;;14.86;85.48;97519.66;30001;983;1875;-57
2022/07/10 01:25:43;;;;;;;;;;;;;;;14.86;85.70;97522.41;30001;983;1875;-58
2022/07/10 01:26:14;;;;;;;;;;;;;;;14.86;85.71;97516.94;30001;983;1875;-57
2022/07/10 01:26:45;;;;;;;;;;;;;;;14.85;86.10;97520.78;30001;982;1875;-59
2022/07/10 01:27:17;;;;;;;;;;;;;;;14.82;85.86;97524.13;30001;982;1875;-57
2022/07/10 01:27:47;;;;;;;;;;;;;;;14.81;86.22;97517.03;30001;982;1875;-58
2022/07/10 01:28:20;;;;;;;;;;;;;;;14.81;86.11;97517.84;30001;982;1862;-58
2022/07/10 01:28:52;;;;;;;;;;;;;;;14.81;85.90;97517.84;30001;982;1867;-57
2022/07/10 01:29:23;;;;;;;;;;;;;;;14.82;85.84;97514.00;30001;983;1875;-58
2022/07/10 01:29:54;;;;;;;;;;;;;;;14.84;85.49;97514.50;30001;983;1875;-58
2022/07/10 01:30:27;;;;;;;;;;;;;;;14.84;85.62;97521.91;30001;983;1875;-59
2022/07/10 01:30:57;;;;;;;;;;;;;;;14.84;85.86;97519.16;30001;983;1875;-58
2022/07/10 01:31:28;;;;;;;;;;;;;;;14.85;85.81;97512.59;30001;983;1875;-60
2022/07/10 01:32:00;;;;;;;;;;;;;;;14.82;85.78;97518.66;30001;983;1875;-59
2022/07/10 01:32:40;;;;;;;;;;;;;;;14.84;85.61;97521.91;30001;983;1875;-58
2022/07/10 01:33:11;;;;;;;;;;;;;;;14.84;86.10;97516.44;30001;983;1862;-59
2022/07/10 01:33:44;;;;;;;;;;;;;;;14.81;86.45;97527.97;30001;983;1867;-58
2022/07/10 01:34:15;;;;;;;;;;;;;;;14.80;86.65;97515.41;30001;982;1875;-57
2022/07/10 01:34:48;;;;;;;;;;;;;;;14.79;86.46;97525.53;30001;982;1862;-57
2022/07/10 01:35:19;;;;;;;;;;;;;;;14.79;86.41;97516.53;30001;982;1867;-58
2022/07/10 01:35:50;;;;;;;;;;;;;;;14.79;86.31;97514.59;30001;982;1875;-57
2022/07/10 01:36:21;;;;;;;;;;;;;;;14.81;85.91;97511.56;30001;982;1875;-58
2022/07/10 01:36:52;;;;;;;;;;;;;;;14.81;85.93;97511.56;30001;983;1875;-59
2022/07/10 01:37:23;;;;;;;;;;;;;;;14.81;85.93;97517.84;30001;983;1875;-58
2022/07/10 01:37:54;;;;;;;;;;;;;;;14.84;85.44;97517.25;30001;983;1875;-58
2022/07/10 01:38:25;;;;;;;;;;;;;;;14.85;85.30;97518.84;30001;983;1875;-58
2022/07/10 01:38:56;;;;;;;;;;;;;;;14.86;85.38;97508.75;30001;983;1875;-58
2022/07/10 01:39:27;;;;;;;;;;;;;;;14.87;85.37;97513.09;30001;983;1875;-59
2022/07/10 01:39:58;;;;;;;;;;;;;;;14.87;85.69;97513.09;30001;983;1862;-58
2022/07/10 01:40:29;;;;;;;;;;;;;;;14.86;85.38;97509.56;30001;983;1866;-59
2022/07/10 01:41:00;;;;;;;;;;;;;;;14.86;85.96;97514.22;30001;983;1875;-58
2022/07/10 01:41:31;;;;;;;;;;;;;;;14.85;86.02;97509.84;30001;983;1875;-58
2022/07/10 01:42:03;;;;;;;;;;;;;;;14.86;85.73;97504.09;30001;982;1875;-58
2022/07/10 01:42:34;;;;;;;;;;;;;;;14.87;85.23;97511.16;30001;982;1875;-57
2022/07/10 01:43:05;;;;;;;;;;;;;;;14.88;84.71;97506.50;30001;982;1875;-58
2022/07/10 01:43:36;;;;;;;;;;;;;;;14.88;84.60;97503.78;30001;982;1875;-58
2022/07/10 01:44:07;;;;;;;;;;;;;;;14.88;84.58;97509.25;30001;983;1875;-57
2022/07/10 01:44:38;;;;;;;;;;;;;;;14.88;84.79;97506.50;30001;983;1861;-58
2022/07/10 01:45:09;;;;;;;;;;;;;;;14.88;84.76;97511.97;30001;983;1866;-58
2022/07/10 01:45:40;;;;;;;;;;;;;;;14.88;85.11;97506.50;30001;983;1875;-58
2022/07/10 01:46:12;;;;;;;;;;;;;;;14.88;85.06;97506.50;30002;983;1875;-57
2022/07/10 01:46:44;;;;;;;;;;;;;;;14.88;84.94;97511.97;30002;983;1875;-58
2022/07/10 01:47:15;;;;;;;;;;;;;;;14.86;85.27;97503.28;30002;983;1875;-57
2022/07/10 01:47:46;;;;;;;;;;;;;;;14.85;85.23;97507.13;30002;983;1875;-58
2022/07/10 01:48:17;;;;;;;;;;;;;;;14.84;85.20;97505.50;30002;983;1875;-59
2022/07/10 01:48:48;;;;;;;;;;;;;;;14.84;85.19;97511.78;30002;982;1875;-58
2022/07/10 01:49:20;;;;;;;;;;;;;;;14.84;85.18;97509.03;30002;982;1862;-61
2022/07/10 01:49:52;;;;;;;;;;;;;;;14.84;85.16;97500.03;30002;982;1867;-57
2022/07/10 01:50:24;;;;;;;;;;;;;;;14.83;85.14;97504.69;30002;982;1875;-58
2022/07/10 01:50:55;;;;;;;;;;;;;;;14.82;85.15;97502.25;30002;982;1875;-58
2022/07/10 01:51:26;;;;;;;;;;;;;;;14.82;84.76;97505.00;30002;982;1875;-57
2022/07/10 01:51:57;;;;;;;;;;;;;;;14.81;84.88;97506.13;30002;983;1875;-58
2022/07/10 01:52:28;;;;;;;;;;;;;;;14.81;85.10;97506.13;30002;983;1875;-58
2022/07/10 01:52:58;;;;;;;;;;;;;;;14.78;85.53;97506.72;30002;983;1875;-58
2022/07/10 01:53:29;;;;;;;;;;;;;;;14.77;85.56;97505.09;30002;986;1875;-58
2022/07/10 01:54:00;;;;;;;;;;;;;;;14.77;85.46;97510.56;30002;983;1875;-58
2022/07/10 01:54:31;;;;;;;;;;;;;;;14.74;85.87;97506.50;30002;983;1862;-58
2022/07/10 01:55:03;;;;;;;;;;;;;;;14.73;85.80;97507.63;30002;983;1854;-58
2022/07/10 01:55:34;;;;;;;;;;;;;;;14.70;85.67;97519.97;30002;983;1875;-58
2022/07/10 01:56:06;;;;;;;;;;;;;;;14.72;85.58;97515.00;30002;982;1875;-57
2022/07/10 01:56:38;;;;;;;;;;;;;;;14.72;85.85;97520.47;30002;982;1875;-60
2022/07/10 01:57:09;;;;;;;;;;;;;;;14.71;85.94;97507.94;30002;982;1875;-58
2022/07/10 01:57:42;;;;;;;;;;;;;;;14.71;85.71;97526.25;30002;982;1875;-59
2022/07/10 01:58:12;;;;;;;;;;;;;;;14.71;85.13;97518.03;30002;982;1875;-57
2022/07/10 01:58:43;;;;;;;;;;;;;;;14.72;85.00;97520.47;30002;982;1876;-60
2022/07/10 01:59:14;;;;;;;;;;;;;;;14.73;85.21;97515.81;30002;983;1875;-57
2022/07/10 01:59:45;;;;;;;;;;;;;;;14.75;84.76;97508.94;30002;983;1861;-58
2022/07/10 02:00:17;;;;;;;;;;;;;;;14.78;84.31;97512.19;30002;983;1866;-59
2022/07/10 02:00:48;;;;;;;;;;;;;;;14.79;83.77;97505.59;30002;983;1875;-58
2022/07/10 02:01:19;;;;;;;;;;;;;;;14.81;84.02;97511.56;30002;983;1875;-58
2022/07/10 02:01:52;;;;;;;;;;;;;;;14.81;83.96;97517.03;30002;983;1875;-59
2022/07/10 02:02:23;;;;;;;;;;;;;;;14.80;83.97;97513.50;30002;983;1875;-58
2022/07/10 02:04:41;;;;;;;;;;;;;;;14.77;84.07;97508.63;30002;982;1862;-58
2022/07/10 02:05:12;;;;;;;;;;;;;;;14.78;84.39;97512.19;30002;980;1880;-58
2022/07/10 02:05:43;;;;;;;;;;;;;;;14.74;84.21;97507.31;30002;982;1875;-59
2022/07/10 02:06:14;;;;;;;;;;;;;;;14.73;84.40;97510.34;30002;983;1861;-58
2022/07/10 02:06:45;;;;;;;;;;;;;;;14.72;84.87;97520.47;30002;983;1866;-59
2022/07/10 02:07:18;;;;;;;;;;;;;;;14.70;84.97;97519.97;30002;983;1875;-59
2022/07/10 02:07:49;;;;;;;;;;;;;;;14.68;84.91;97516.72;30002;983;1875;-58
2022/07/10 02:08:20;;;;;;;;;;;;;;;14.67;84.85;97506.91;30002;983;1875;-59
2022/07/10 02:08:51;;;;;;;;;;;;;;;14.67;84.49;97512.38;30002;983;1875;-59
2022/07/10 02:09:22;;;;;;;;;;;;;;;14.64;84.78;97512.19;30002;983;1875;-59
2022/07/10 02:09:53;;;;;;;;;;;;;;;14.61;84.76;97518.25;30002;983;1875;-59
2022/07/10 02:10:24;;;;;;;;;;;;;;;14.59;84.91;97520.47;30002;983;1862;-58
2022/07/10 02:10:55;;;;;;;;;;;;;;;14.58;85.22;97516.13;30002;983;1866;-58
2022/07/10 02:11:29;;;;;;;;;;;;;;;14.59;85.34;97515.00;30002;982;1875;-60
2022/07/10 02:12:00;;;;;;;;;;;;;;;14.58;84.87;97519.66;30002;982;1875;-58
2022/07/10 02:12:32;;;;;;;;;;;;;;;14.59;85.19;97524.00;30002;982;1875;-58
2022/07/10 02:13:03;;;;;;;;;;;;;;;14.59;84.94;97526.75;30002;982;1875;-60
2022/07/10 02:13:38;;;;;;;;;;;;;;;14.57;85.46;97518.03;30002;983;1861;-60
2022/07/10 02:14:09;;;;;;;;;;;;;;;14.56;85.30;97519.16;30002;983;1866;-58
2022/07/10 02:14:41;;;;;;;;;;;;;;;14.54;85.58;97513.22;30002;983;1875;-60
2022/07/10 02:15:12;;;;;;;;;;;;;;;14.53;85.28;97516.25;30002;983;1875;-58
2022/07/10 02:15:43;;;;;;;;;;;;;;;14.53;85.53;97516.25;30002;983;1875;-59
2022/07/10 02:16:14;;;;;;;;;;;;;;;14.53;85.25;97521.69;30002;974;1882;-57
2022/07/10 02:16:46;;;;;;;;;;;;;;;14.53;85.59;97519.78;30002;983;1875;-58
2022/07/10 02:17:17;;;;;;;;;;;;;;;14.55;85.15;97520.28;30002;983;1875;-58
2022/07/10 02:17:47;;;;;;;;;;;;;;;14.63;84.90;97516.81;30002;983;1875;-53
2022/07/10 02:18:19;;;;;;;;;;;;;;;14.72;83.67;97519.66;30002;986;1871;-57
2022/07/10 02:18:50;;;;;;;;;;;;;;;14.75;83.36;97514.41;30002;982;1862;-60
2022/07/10 02:19:21;;;;;;;;;;;;;;;14.75;83.65;97517.13;30002;982;1853;-58
2022/07/10 02:19:52;;;;;;;;;;;;;;;14.75;83.63;97525.34;30002;982;1875;-58
2022/07/10 02:20:23;;;;;;;;;;;;;;;14.77;83.30;97505.09;30002;982;1875;-58
2022/07/10 02:20:54;;;;;;;;;;;;;;;14.79;83.59;97509.16;30002;982;1875;-58
2022/07/10 02:21:25;;;;;;;;;;;;;;;14.80;83.65;97515.41;30002;983;1861;-59
2022/07/10 02:21:56;;;;;;;;;;;;;;;14.79;84.27;97514.59;30002;983;1866;-56
2022/07/10 02:22:26;;;;;;;;;;;;;;;14.78;84.19;97512.19;30002;983;1875;-55
2022/07/10 02:22:57;;;;;;;;;;;;;;;14.79;83.99;97509.16;30002;983;1875;-56
2022/07/10 02:23:28;;;;;;;;;;;;;;;14.84;83.32;97511.78;30002;983;1875;-57
2022/07/10 02:23:59;;;;;;;;;;;;;;;14.86;83.57;97508.75;30002;983;1875;-58
2022/07/10 02:24:30;;;;;;;;;;;;;;;14.85;83.80;97513.41;30002;983;1862;-57
2022/07/10 02:25:01;;;;;;;;;;;;;;;14.84;83.83;97514.50;30002;983;1866;-60
2022/07/10 02:25:32;;;;;;;;;;;;;;;14.82;83.43;97513.19;30002;983;1875;-58
2022/07/10 02:26:03;;;;;;;;;;;;;;;14.82;83.43;97515.94;30002;982;1875;-59
2022/07/10 02:26:35;;;;;;;;;;;;;;;14.82;84.17;97524.94;30002;982;1862;-58
2022/07/10 02:27:07;;;;;;;;;;;;;;;14.84;84.48;97510.97;30002;982;1867;-58
2022/07/10 02:27:40;;;;;;;;;;;;;;;14.84;84.48;97508.25;30002;982;1875;-58
2022/07/10 02:28:11;;;;;;;;;;;;;;;14.84;84.28;97519.16;30002;982;1875;-59
2022/07/10 02:28:42;;;;;;;;;;;;;;;14.91;83.55;97512.16;30002;985;1773;-58
2022/07/10 02:29:13;;;;;;;;;;;;;;;14.92;83.25;97507.50;30002;983;1861;-56
2022/07/10 02:29:44;;;;;;;;;;;;;;;14.94;83.30;97521.66;30002;983;1866;-58
2022/07/10 02:30:15;;;;;;;;;;;;;;;14.93;83.22;97518.13;30002;978;1875;-58
2022/07/10 02:30:46;;;;;;;;;;;;;;;14.96;83.46;97516.69;30002;983;1875;-59
2022/07/10 02:31:17;;;;;;;;;;;;;;;14.95;83.58;97517.81;30002;983;1875;-60
2022/07/10 02:31:49;;;;;;;;;;;;;;;14.94;83.63;97521.66;30002;983;1862;-58
2022/07/10 02:32:21;;;;;;;;;;;;;;;14.91;83.87;97516.81;30002;983;1866;-59
2022/07/10 02:32:52;;;;;;;;;;;;;;;14.90;83.68;97518.72;30002;983;1875;-59
2022/07/10 02:33:23;;;;;;;;;;;;;;;14.88;83.76;97514.72;30002;985;1875;-57
2022/07/10 02:33:54;;;;;;;;;;;;;;;14.89;83.85;97508.13;30002;982;1875;-56
2022/07/10 02:34:25;;;;;;;;;;;;;;;14.88;83.56;97511.97;30002;982;1862;-59
2022/07/10 02:34:56;;;;;;;;;;;;;;;14.88;83.94;97520.19;30002;982;1867;-59
2022/07/10 02:35:27;;;;;;;;;;;;;;;14.91;84.07;97522.28;30002;982;1804;-57
2022/07/10 02:35:58;;;;;;;;;;;;;;;14.91;84.04;97516.81;30002;982;1875;-58
2022/07/10 02:36:29;;;;;;;;;;;;;;;14.89;84.07;97519.06;30002;983;1875;-57
2022/07/10 02:37:01;;;;;;;;;;;;;;;14.90;83.97;97518.72;30002;983;1875;-56
2022/07/10 02:37:32;;;;;;;;;;;;;;;14.90;84.04;97515.22;30002;983;1875;-58
2022/07/10 02:38:03;;;;;;;;;;;;;;;14.96;83.65;97513.97;30001;983;1875;-57
2022/07/10 02:38:34;;;;;;;;;;;;;;;14.96;83.48;97525.72;30001;983;1862;-58
2022/07/10 02:39:06;;;;;;;;;;;;;;;14.96;83.76;97519.44;30002;983;1853;-59
2022/07/10 02:39:40;;;;;;;;;;;;;;;14.95;83.70;97523.28;30001;983;1875;-58
2022/07/10 02:40:11;;;;;;;;;;;;;;;14.95;84.44;97523.28;30001;983;1875;-58
2022/07/10 02:40:41;;;;;;;;;;;;;;;14.94;84.24;97524.41;30001;982;1875;-56
2022/07/10 02:41:12;;;;;;;;;;;;;;;14.94;84.24;97527.12;30001;982;1876;-60
2022/07/10 02:41:43;;;;;;;;;;;;;;;14.93;84.20;97530.97;30001;982;1875;-58
2022/07/10 02:42:14;;;;;;;;;;;;;;;14.91;83.98;97523.09;30001;982;1875;-58
2022/07/10 02:42:45;;;;;;;;;;;;;;;14.91;84.45;97528.53;30001;982;1875;-60
2022/07/10 02:43:15;;;;;;;;;;;;;;;14.90;84.51;97537.06;30001;982;1863;-57
2022/07/10 02:43:47;;;;;;;;;;;;;;;14.89;84.59;97536.25;30001;983;1866;-58
2022/07/10 02:44:17;;;;;;;;;;;;;;;14.89;84.45;97532.72;30001;983;1875;-59
2022/07/10 02:44:48;;;;;;;;;;;;;;;14.90;84.60;97534.34;30001;983;1875;-59
2022/07/10 02:45:19;;;;;;;;;;;;;;;14.89;84.83;97527.25;30001;983;1875;-59
2022/07/10 02:45:51;;;;;;;;;;;;;;;14.89;84.66;97532.72;30001;983;1875;-59
2022/07/10 02:46:22;;;;;;;;;;;;;;;14.89;84.41;97535.47;30001;983;1875;-59
2022/07/10 02:46:53;;;;;;;;;;;;;;;14.92;84.58;97532.09;30001;983;1875;-57
2022/07/10 02:47:24;;;;;;;;;;;;;;;14.93;84.50;97526.31;30001;983;1862;-58
2022/07/10 02:47:54;;;;;;;;;;;;;;;14.92;84.90;97523.87;30001;982;1866;-59
2022/07/10 02:48:25;;;;;;;;;;;;;;;14.92;84.31;97529.34;30001;982;1875;-60
2022/07/10 02:48:59;;;;;;;;;;;;;;;14.91;84.15;97527.72;30001;982;1862;-60
2022/07/10 02:49:33;;;;;;;;;;;;;;;14.92;84.33;97534.81;30002;982;1847;-58
2022/07/10 02:50:06;;;;;;;;;;;;;;;14.93;84.75;97528.25;30001;982;1875;-59